createdAt,value
2018-05-03T00:04:10.378Z,95010
2018-05-03T00:09:04.712Z,95001
2018-05-03T00:13:59.044Z,95004
2018-05-03T00:18:53.403Z,95001
2018-05-03T00:23:47.700Z,95006
2018-05-03T00:28:41.798Z,95013
2018-05-03T00:33:35.696Z,95008
2018-05-03T00:38:30.301Z,95007
2018-05-03T00:43:25.151Z,95002
2018-05-03T00:48:19.020Z,94999
2018-05-03T00:53:13.129Z,94990
2018-05-03T00:58:07.597Z,94990
2018-05-03T01:03:01.897Z,94989
2018-05-03T01:07:56.010Z,94990
2018-05-03T01:12:52.606Z,94984
2018-05-03T01:17:46.226Z,94990
2018-05-03T01:22:40.463Z,94971
2018-05-03T01:27:34.472Z,94977
2018-05-03T01:32:29.300Z,94980
2018-05-03T01:37:23.714Z,94967
2018-05-03T01:42:17.940Z,94968
2018-05-03T01:47:11.991Z,94959
2018-05-03T01:52:06.603Z,94955
2018-05-03T01:57:00.701Z,94954
2018-05-03T02:01:54.929Z,94965
2018-05-03T02:06:49.098Z,94955
2018-05-03T02:11:43.347Z,94950
2018-05-03T02:16:37.189Z,94935
2018-05-03T02:21:31.513Z,94937
2018-05-03T02:26:25.675Z,94941
2018-05-03T02:31:19.858Z,94934
2018-05-03T02:36:14.502Z,94941
2018-05-03T02:41:09.094Z,94930
2018-05-03T02:46:03.241Z,94940
2018-05-03T02:50:57.900Z,94936
2018-05-03T02:55:52.160Z,94942
2018-05-03T03:00:46.656Z,94932
2018-05-03T03:05:40.755Z,94940
2018-05-03T03:10:34.921Z,94935
2018-05-03T03:15:29.507Z,94940
2018-05-03T03:20:24.056Z,94946
2018-05-03T03:25:18.720Z,94945
2018-05-03T03:30:12.609Z,94947
2018-05-03T03:35:07.231Z,94962
2018-05-03T03:40:01.441Z,94966
2018-05-03T03:44:56.485Z,94962
2018-05-03T03:49:50.804Z,94953
2018-05-03T03:54:44.564Z,94958
2018-05-03T03:59:38.681Z,94952
2018-05-03T04:04:32.913Z,94952
2018-05-03T04:09:27.242Z,94940
2018-05-03T04:14:22.060Z,94948
2018-05-03T04:19:16.752Z,94937
2018-05-03T04:24:11.067Z,94949
2018-05-03T04:29:05.468Z,94941
2018-05-03T04:33:59.657Z,94939
2018-05-03T04:38:53.847Z,94937
2018-05-03T04:43:48.665Z,94930
2018-05-03T04:48:42.818Z,94929
2018-05-03T04:53:36.962Z,94933
2018-05-03T04:58:31.502Z,94931
2018-05-03T05:03:26.124Z,94924
2018-05-03T05:08:20.628Z,94923
2018-05-03T05:13:14.628Z,94912
2018-05-03T05:18:08.710Z,94910
2018-05-03T05:23:03.298Z,94891
2018-05-03T05:27:57.787Z,94906
2018-05-03T05:32:52.356Z,94905
2018-05-03T05:37:46.511Z,94900
2018-05-03T05:42:40.974Z,94902
2018-05-03T05:47:35.561Z,94899
2018-05-03T05:52:30.163Z,94899
2018-05-03T05:57:24.725Z,94897
2018-05-03T06:02:19.466Z,94906
2018-05-03T06:07:14.258Z,94906
2018-05-03T06:12:08.975Z,94894
2018-05-03T06:17:03.774Z,94900
2018-05-03T06:21:58.039Z,94898
2018-05-03T06:26:52.053Z,94895
2018-05-03T06:31:46.465Z,94904
2018-05-03T06:36:41.122Z,94902
2018-05-03T06:41:35.331Z,94900
2018-05-03T06:46:29.811Z,94906
2018-05-03T06:51:23.823Z,94904
2018-05-03T06:56:17.960Z,94896
2018-05-03T07:01:12.650Z,94903
2018-05-03T07:06:07.516Z,94893
2018-05-03T07:11:02.471Z,94900
2018-05-03T07:15:56.333Z,94900
2018-05-03T07:20:50.848Z,94897
2018-05-03T07:25:45.141Z,94897
2018-05-03T07:30:39.767Z,94897
2018-05-03T07:35:34.213Z,94891
2018-05-03T07:40:29.016Z,94894
2018-05-03T07:45:23.692Z,94890
2018-05-03T07:50:18.043Z,94880
2018-05-03T07:55:12.818Z,94876
2018-05-03T08:00:07.596Z,94868
2018-05-03T08:05:01.903Z,94873
2018-05-03T08:09:56.177Z,94864
2018-05-03T08:14:51.008Z,94858
2018-05-03T08:19:45.367Z,94859
2018-05-03T08:24:39.086Z,94855
2018-05-03T08:29:33.499Z,94852
2018-05-03T08:34:28.257Z,94853
2018-05-03T08:39:22.978Z,94845
2018-05-03T08:44:17.634Z,94846
2018-05-03T08:49:11.645Z,94839
2018-05-03T08:54:06.571Z,94841
2018-05-03T08:59:01.353Z,94836
2018-05-03T09:03:55.722Z,94826
2018-05-03T09:08:50.425Z,94813
2018-05-03T09:13:44.606Z,94821
2018-05-03T09:18:39.177Z,94811
2018-05-03T09:23:33.059Z,94812
2018-05-03T09:28:27.274Z,94797
2018-05-03T09:33:21.738Z,94799
2018-05-03T09:38:16.771Z,94798
2018-05-03T09:43:10.695Z,94801
2018-05-03T09:48:05.528Z,94791
2018-05-03T09:53:00.461Z,94788
2018-05-03T09:57:54.647Z,94786
2018-05-03T10:02:49.808Z,94774
2018-05-03T10:07:44.351Z,94773
2018-05-03T10:12:38.960Z,94772
2018-05-03T10:17:32.993Z,94770
2018-05-03T10:22:27.747Z,94755
2018-05-03T10:27:22.624Z,94752
2018-05-03T10:32:17.073Z,94742
2018-05-03T10:37:11.269Z,94749
2018-05-03T10:42:06.417Z,94754
2018-05-03T10:47:00.061Z,94745
2018-05-03T10:51:54.047Z,94736
2018-05-03T10:56:48.225Z,94738
2018-05-03T11:01:42.822Z,94744
2018-05-03T11:06:37.256Z,94744
2018-05-03T11:11:31.473Z,94736
2018-05-03T11:16:29.822Z,94730
2018-05-03T11:21:22.812Z,94731
2018-05-03T11:26:16.847Z,94741
2018-05-03T11:31:10.982Z,94733
2018-05-03T11:36:05.321Z,94743
2018-05-03T11:40:59.373Z,94745
2018-05-03T11:45:54.081Z,94736
2018-05-03T11:50:48.237Z,94732
2018-05-03T11:55:42.877Z,94715
2018-05-03T12:00:37.350Z,94731
2018-05-03T12:05:31.578Z,94757
2018-05-03T12:10:26.161Z,94751
2018-05-03T12:15:19.916Z,94789
2018-05-03T12:20:14.155Z,94815
2018-05-03T12:25:07.947Z,94834
2018-05-03T12:30:02.041Z,94840
2018-05-03T12:34:56.480Z,94838
2018-05-03T12:39:50.159Z,94827
2018-05-03T12:44:44.404Z,94823
2018-05-03T12:49:39.117Z,94834
2018-05-03T12:54:33.627Z,94837
2018-05-03T12:59:28.257Z,94838
2018-05-03T13:04:22.348Z,94830
2018-05-03T13:09:17.764Z,94820
2018-05-03T13:14:12.094Z,94823
2018-05-03T13:19:06.335Z,94834
2018-05-03T13:24:00.569Z,94823
2018-05-03T13:28:55.074Z,94831
2018-05-03T13:33:49.532Z,94832
2018-05-03T13:38:44.160Z,94837
2018-05-03T13:43:38.303Z,94824
2018-05-03T13:48:32.644Z,94833
2018-05-03T13:53:27.038Z,94839
2018-05-03T13:58:21.071Z,94847
2018-05-03T14:03:15.273Z,94848
2018-05-03T14:08:09.647Z,94836
2018-05-03T14:13:03.835Z,94841
2018-05-03T14:17:58.619Z,94831
2018-05-03T14:22:52.793Z,94823
2018-05-03T14:27:46.846Z,94831
2018-05-03T14:32:41.075Z,94812
2018-05-03T14:37:35.482Z,94817
2018-05-03T14:42:29.593Z,94806
2018-05-03T14:47:24.381Z,94792
2018-05-03T14:52:18.968Z,94780
2018-05-03T14:57:13.400Z,94788
2018-05-03T15:02:07.692Z,94787
2018-05-03T15:07:02.513Z,94784
2018-05-03T15:11:56.520Z,94782
2018-05-03T15:16:51.197Z,94780
2018-05-03T15:21:45.787Z,94777
2018-05-03T15:26:39.927Z,94787
2018-05-03T15:31:34.652Z,94797
2018-05-03T15:36:29.388Z,94796
2018-05-03T15:41:24.050Z,94791
2018-05-03T15:46:18.088Z,94789
2018-05-03T15:51:12.435Z,94776
2018-05-03T15:56:07.240Z,94793
2018-05-03T16:01:01.490Z,94783
2018-05-03T16:05:55.713Z,94791
2018-05-03T16:10:49.873Z,94799
2018-05-03T16:15:44.445Z,94793
2018-05-03T16:20:38.190Z,94798
2018-05-03T16:25:32.378Z,94803
2018-05-03T16:30:26.648Z,94800
2018-05-03T16:35:21.463Z,94806
2018-05-03T16:40:15.487Z,94809
2018-05-03T16:45:10.174Z,94808
2018-05-03T16:50:04.432Z,94816
2018-05-03T16:54:58.519Z,94819
2018-05-03T16:59:52.840Z,94822
2018-05-03T17:04:47.766Z,94818
2018-05-03T17:09:42.283Z,94833
2018-05-03T17:14:37.015Z,94834
2018-05-03T17:19:31.527Z,94843
2018-05-03T17:24:25.688Z,94854
2018-05-03T17:29:20.270Z,94851
2018-05-03T17:34:14.271Z,94858
2018-05-03T17:39:09.251Z,94861
2018-05-03T17:44:03.214Z,94873
2018-05-03T17:48:57.351Z,94883
2018-05-03T17:53:52.166Z,94888
2018-05-03T17:58:46.323Z,94904
2018-05-03T18:03:40.583Z,94907
2018-05-03T18:08:35.282Z,94906
2018-05-03T18:13:29.897Z,94915
2018-05-03T18:18:23.876Z,94925
2018-05-03T18:23:18.066Z,94938
2018-05-03T18:28:12.428Z,94934
2018-05-03T18:33:06.587Z,94933
2018-05-03T18:38:01.416Z,94940
2018-05-03T18:42:55.381Z,94959
2018-05-03T18:47:50.045Z,94959
2018-05-03T18:52:44.404Z,94964
2018-05-03T18:57:38.543Z,94969
2018-05-03T19:02:32.558Z,94978
2018-05-03T19:07:26.851Z,94984
2018-05-03T19:12:20.651Z,94976
2018-05-03T19:17:14.857Z,94989
2018-05-03T19:22:09.333Z,94994
2018-05-03T19:27:03.408Z,94994
2018-05-03T19:31:58.302Z,94996
2018-05-03T19:36:52.756Z,94989
2018-05-03T19:41:47.452Z,94994
2018-05-03T19:46:41.895Z,94995
2018-05-03T19:51:36.657Z,95000
2018-05-03T19:56:30.928Z,94989
2018-05-03T20:01:25.512Z,94994
2018-05-03T20:06:19.668Z,94981
2018-05-03T20:11:14.416Z,94959
2018-05-03T20:16:08.778Z,94971
2018-05-03T20:21:02.983Z,94984
2018-05-03T20:25:57.167Z,94988
2018-05-03T20:30:51.273Z,94980
2018-05-03T20:35:45.418Z,94975
2018-05-03T20:40:39.814Z,94970
2018-05-03T20:45:33.907Z,94971
2018-05-03T20:50:28.503Z,94938
2018-05-03T20:55:22.663Z,94933
2018-05-03T21:00:16.861Z,94937
2018-05-03T21:05:11.551Z,94953
2018-05-03T21:10:05.829Z,94964
2018-05-03T21:14:59.958Z,94963
2018-05-03T21:19:53.732Z,94958
2018-05-03T21:24:47.828Z,94961
2018-05-03T21:29:42.110Z,94923
2018-05-03T21:34:36.277Z,94949
2018-05-03T21:39:30.496Z,94942
2018-05-03T21:44:25.265Z,94938
2018-05-03T21:49:20.231Z,94946
2018-05-03T21:54:14.175Z,94935
2018-05-03T21:59:08.145Z,94933
2018-05-03T22:04:02.813Z,94935
2018-05-03T22:08:57.037Z,94945
2018-05-03T22:13:51.340Z,94935
2018-05-03T22:18:45.378Z,94924
2018-05-03T22:23:39.808Z,94925
2018-05-03T22:28:34.214Z,94927
2018-05-03T22:33:28.583Z,94911
2018-05-03T22:38:22.760Z,94914
2018-05-03T22:43:17.382Z,94905
2018-05-03T22:48:12.177Z,94896
2018-05-03T22:53:06.146Z,94904
2018-05-03T22:58:00.285Z,94906
2018-05-03T23:02:54.682Z,94903
2018-05-03T23:07:49.554Z,94904
2018-05-03T23:12:43.739Z,94901
2018-05-03T23:17:38.125Z,94898
2018-05-03T23:22:32.000Z,94902
2018-05-03T23:27:26.328Z,94885
2018-05-03T23:32:20.392Z,94889
2018-05-03T23:37:14.848Z,94898
2018-05-03T23:42:09.044Z,94895
2018-05-03T23:47:03.200Z,94905
2018-05-03T23:51:57.113Z,94895
2018-05-03T23:56:51.438Z,94902
